Time;durP1;ratioP1;P1;durP2;ratioP2;P2;SDS_P1;SDS_P2;PMS_P1;PMS_P2;Temp;Humidity;BMP_temperature;BMP_pressure;BME280_temperature;BME280_humidity;BME280_pressure;Samples;Min_cycle;Max_cycle;Signal;HPM_P1;HPM_P2
2023/01/24 00:01:11;;;;;;;1.70;1.20;;;7.00;42.90;;;;;;4934043;29;20282;-68
2023/01/24 00:03:37;;;;;;;1.80;1.20;;;7.10;42.20;;;;;;4935816;29;20183;-70
2023/01/24 00:06:03;;;;;;;2.43;1.73;;;7.20;42.60;;;;;;4932330;29;20258;-69
2023/01/24 00:08:28;;;;;;;3.10;2.40;;;7.20;42.50;;;;;;4934298;29;20211;-69
2023/01/24 00:11:02;;;;;;;2.03;1.50;;;7.00;42.80;;;;;;4936006;29;20566;-69
2023/01/24 00:13:28;;;;;;;1.90;1.55;;;7.20;42.20;;;;;;4932096;29;20180;-69
2023/01/24 00:16:08;;;;;;;1.80;1.30;;;7.20;42.50;;;;;;4934590;29;20278;-68
2023/01/24 00:18:35;;;;;;;2.40;1.50;;;7.10;43.00;;;;;;4936262;29;20184;-71
2023/01/24 00:21:02;;;;;;;2.35;1.60;;;6.90;43.20;;;;;;4935928;29;20255;-69
2023/01/24 00:23:28;;;;;;;1.70;1.13;;;7.10;42.80;;;;;;4935190;29;20188;-70
2023/01/24 00:25:53;;;;;;;1.70;1.20;;;7.00;42.80;;;;;;4936048;29;20188;-68
2023/01/24 00:28:19;;;;;;;1.80;1.33;;;7.40;43.20;;;;;;4934689;29;20722;-69
2023/01/24 00:30:45;;;;;;;1.80;1.20;;;6.90;42.90;;;;;;4938643;29;20230;-69
2023/01/24 00:33:11;;;;;;;1.80;1.30;;;7.00;43.00;;;;;;4937496;29;20303;-69
2023/01/24 00:35:37;;;;;;;2.75;2.03;;;6.80;44.00;;;;;;4935227;29;20435;-68
2023/01/24 00:38:03;;;;;;;1.70;1.10;;;6.50;44.20;;;;;;4935517;29;20541;-68
2023/01/24 00:40:28;;;;;;;2.00;1.50;;;6.70;43.90;;;;;;4935100;29;20188;-68
2023/01/24 00:42:54;;;;;;;3.03;1.83;;;6.90;43.20;;;;;;4933298;29;20180;-70
2023/01/24 00:45:19;;;;;;;2.50;1.60;;;6.80;43.50;;;;;;4935293;29;20184;-68
2023/01/24 00:47:45;;;;;;;1.70;1.20;;;7.00;43.10;;;;;;4935402;29;20228;-69
2023/01/24 00:50:10;;;;;;;2.33;1.57;;;6.80;43.00;;;;;;4935292;29;20204;-68
2023/01/24 00:52:36;;;;;;;1.80;1.30;;;6.50;43.80;;;;;;4933253;29;20734;-68
2023/01/24 00:55:01;;;;;;;1.80;1.27;;;6.70;43.90;;;;;;4934783;29;20246;-68
2023/01/24 00:57:27;;;;;;;1.90;1.40;;;6.60;43.70;;;;;;4934713;29;20212;-69
2023/01/24 00:59:53;;;;;;;2.00;1.50;;;6.70;43.60;;;;;;4935202;29;20259;-68
2023/01/24 01:02:18;;;;;;;1.90;1.30;;;6.70;43.50;;;;;;4934650;29;20212;-68
2023/01/24 01:04:44;;;;;;;6.13;1.77;;;6.70;43.30;;;;;;4940316;29;20235;-69
2023/01/24 01:07:10;;;;;;;1.87;1.30;;;6.70;43.90;;;;;;4935137;29;20674;-68
2023/01/24 01:09:35;;;;;;;1.70;1.17;;;6.80;43.40;;;;;;4934606;29;20238;-68
2023/01/24 01:12:01;;;;;;;1.70;1.10;;;6.80;43.90;;;;;;4935011;29;20675;-68
2023/01/24 01:14:26;;;;;;;1.80;1.30;;;6.80;43.30;;;;;;4933165;29;20187;-68
2023/01/24 01:16:52;;;;;;;1.73;1.17;;;6.90;43.20;;;;;;4934858;29;20235;-68
2023/01/24 01:19:18;;;;;;;2.03;1.37;;;6.90;42.60;;;;;;4934657;29;20644;-69
2023/01/24 01:21:44;;;;;;;3.57;2.23;;;7.40;43.90;;;;;;4934744;29;20269;-68
2023/01/24 01:24:10;;;;;;;2.10;1.40;;;6.90;43.30;;;;;;4934251;29;20180;-70
2023/01/24 01:26:35;;;;;;;1.70;1.20;;;7.10;42.50;;;;;;4933970;29;20695;-69
2023/01/24 01:29:01;;;;;;;3.20;2.73;;;7.00;42.40;;;;;;4933527;29;20339;-69
2023/01/24 01:31:27;;;;;;;1.87;1.30;;;6.90;42.80;;;;;;4934328;29;20699;-68
2023/01/24 01:33:52;;;;;;;2.10;1.60;;;6.90;43.10;;;;;;4934435;29;20554;-68
2023/01/24 01:36:18;;;;;;;1.80;1.30;;;7.00;43.00;;;;;;4932847;29;20183;-69
2023/01/24 01:38:43;;;;;;;1.77;1.20;;;7.10;42.80;;;;;;4940935;29;20206;-68
2023/01/24 01:41:12;;;;;;;1.90;1.40;;;7.10;42.80;;;;;;4934240;29;20655;-68
2023/01/24 01:44:37;;;;;;;1.70;1.20;;;7.70;44.30;;;;;;4933197;29;20184;-68
2023/01/24 01:46:27;;;;;;;2.20;1.60;;;6.60;43.70;;;;;;4933454;29;20703;-68
2023/01/24 01:48:58;;;;;;;1.80;1.20;;;6.60;44.70;;;;;;4932238;29;20215;-68
2023/01/24 01:51:37;;;;;;;1.70;1.20;;;6.70;44.30;;;;;;4933797;29;20211;-68
2023/01/24 01:54:11;;;;;;;1.70;1.10;;;6.50;45.30;;;;;;4933141;29;20184;-69
2023/01/24 01:56:43;;;;;;;1.70;1.13;;;6.60;44.70;;;;;;4934314;29;20554;-68
2023/01/24 01:59:19;;;;;;;2.28;1.63;;;6.50;45.00;;;;;;4937931;29;20183;-70
2023/01/24 02:01:46;;;;;;;1.70;1.10;;;6.80;44.20;;;;;;4933821;29;20606;-68
2023/01/24 02:04:20;;;;;;;1.70;1.10;;;6.70;44.70;;;;;;4932364;29;20267;-69
2023/01/24 02:07:16;;;;;;;1.80;1.20;;;6.90;44.10;;;;;;4934140;29;20199;-68
2023/01/24 02:09:45;;;;;;;1.83;1.20;;;7.00;43.80;;;;;;4932358;29;20578;-68
2023/01/24 02:12:15;;;;;;;2.25;1.75;;;6.70;44.70;;;;;;4933743;29;20208;-69
2023/01/24 02:17:27;;;;;;;1.70;1.20;;;6.80;44.20;;;;;;4932029;29;20195;-68
2023/01/24 02:19:52;;;;;;;2.00;1.40;;;6.50;45.40;;;;;;4933650;29;20559;-68
2023/01/24 02:22:53;;;;;;;5.10;1.80;;;6.50;45.40;;;;;;4933745;29;20204;-68
2023/01/24 02:25:47;;;;;;;3.03;1.50;;;6.50;45.70;;;;;;4892621;29;20201;-68
2023/01/24 02:28:13;;;;;;;1.70;1.20;;;6.80;44.90;;;;;;4879710;29;20185;-69
2023/01/24 02:30:39;;;;;;;1.80;1.30;;;6.60;45.10;;;;;;4895889;29;20224;-69
2023/01/24 02:33:17;;;;;;;2.10;1.60;;;6.70;45.50;;;;;;4893248;29;20414;-69
2023/01/24 02:35:44;;;;;;;1.73;1.20;;;6.70;44.90;;;;;;4892561;29;20197;-68
2023/01/24 02:38:17;;;;;;;1.70;1.10;;;6.70;45.40;;;;;;4889869;29;20217;-70
2023/01/24 02:40:44;;;;;;;1.75;1.30;;;6.70;45.30;;;;;;4891658;29;20555;-68
2023/01/24 02:43:13;;;;;;;1.70;1.10;;;6.70;45.40;;;;;;4893177;29;20189;-69
2023/01/24 02:45:38;;;;;;;1.85;1.33;;;6.70;45.40;;;;;;4893558;29;20190;-68
2023/01/24 02:48:04;;;;;;;1.70;1.30;;;7.00;45.90;;;;;;4892280;29;20614;-68
2023/01/24 02:53:28;;;;;;;1.90;1.27;;;6.60;45.40;;;;;;4893206;29;20269;-69
2023/01/24 02:53:29;;;;;;;2.00;1.10;;;6.50;46.50;;;;;;4892927;29;20189;-68
2023/01/24 02:58:39;;;;;;;2.78;1.77;;;6.80;45.20;;;;;;4894217;29;20208;-69
2023/01/24 03:01:05;;;;;;;2.03;1.37;;;8.10;46.30;;;;;;4899392;29;20217;-68
2023/01/24 03:03:30;;;;;;;1.70;1.23;;;6.80;44.80;;;;;;4936766;29;20263;-68
2023/01/24 03:05:56;;;;;;;1.90;1.50;;;6.80;45.10;;;;;;4936843;29;20222;-68
2023/01/24 03:08:27;;;;;;;2.53;1.53;;;6.80;45.00;;;;;;4935944;29;20180;-68
2023/01/24 03:10:53;;;;;;;1.80;1.20;;;7.00;44.90;;;;;;4940487;29;20731;-68
2023/01/24 03:35:15;;;;;;;1.92;1.30;;;6.50;46.30;;;;;;4937078;29;20536;-68
2023/01/24 03:40:24;;;;;;;2.20;1.50;;;6.60;46.40;;;;;;4934866;29;20234;-68
2023/01/24 03:42:50;;;;;;;2.40;1.70;;;6.70;45.50;;;;;;4931737;29;20188;-68
2023/01/24 03:45:24;;;;;;;1.70;1.20;;;6.70;45.30;;;;;;4940993;29;20188;-69
2023/01/24 03:47:55;;;;;;;2.00;1.30;;;6.60;46.70;;;;;;4935074;29;20179;-68
2023/01/24 03:53:18;;;;;;;2.00;1.52;;;6.60;46.10;;;;;;4935230;29;20199;-68
2023/01/24 03:55:43;;;;;;;1.70;1.10;;;6.50;46.60;;;;;;4936386;29;20188;-69
2023/01/24 03:58:10;;;;;;;2.20;1.57;;;6.50;46.50;;;;;;4936445;29;20264;-68
2023/01/24 04:00:37;;;;;;;2.45;1.75;;;6.40;46.50;;;;;;4943085;29;20200;-69
2023/01/24 04:03:02;;;;;;;2.25;1.60;;;6.50;46.50;;;;;;4938563;29;20226;-68
2023/01/24 04:05:28;;;;;;;3.20;1.40;;;6.60;46.70;;;;;;4936002;29;20199;-68
2023/01/24 04:07:54;;;;;;;2.90;1.63;;;6.50;46.50;;;;;;4936127;29;20180;-68
2023/01/24 04:10:20;;;;;;;1.80;1.23;;;6.50;46.50;;;;;;4933899;29;20620;-68
2023/01/24 04:12:46;;;;;;;2.65;2.22;;;6.70;45.70;;;;;;4967795;23;20313;-76
2023/01/24 04:15:18;;;;;;;1.80;1.30;;;6.60;45.80;;;;;;4952576;29;20176;-76
2023/01/24 04:17:43;;;;;;;1.70;1.10;;;6.50;46.60;;;;;;4957041;29;20270;-76
2023/01/24 04:20:10;;;;;;;1.77;1.30;;;6.60;46.60;;;;;;4954279;29;20725;-76
2023/01/24 04:22:36;;;;;;;2.10;1.67;;;6.60;46.60;;;;;;4929078;29;20271;-75
2023/01/24 04:25:01;;;;;;;2.03;1.63;;;6.20;48.00;;;;;;4935706;29;20464;-76
2023/01/24 04:27:27;;;;;;;2.87;2.03;;;5.90;49.10;;;;;;4934866;29;20519;-76
2023/01/24 04:29:52;;;;;;;1.80;1.27;;;6.20;48.70;;;;;;4935099;29;20219;-75
2023/01/24 04:32:18;;;;;;;2.50;1.90;;;6.20;48.60;;;;;;4933256;29;20258;-76
2023/01/24 04:34:44;;;;;;;2.10;1.67;;;6.10;49.10;;;;;;4936814;29;20191;-76
2023/01/24 04:37:09;;;;;;;3.80;1.77;;;3.90;45.60;;;;;;4935576;29;20190;-76
2023/01/24 04:39:35;;;;;;;1.70;1.30;;;6.50;47.50;;;;;;4934905;29;20212;-76
2023/01/24 04:42:00;;;;;;;1.90;1.40;;;6.50;46.60;;;;;;4933356;29;20279;-76
2023/01/24 04:44:26;;;;;;;1.90;1.30;;;6.40;47.10;;;;;;4932811;29;20187;-76
2023/01/24 04:46:51;;;;;;;2.70;1.80;;;6.20;48.50;;;;;;4935484;29;20223;-76
2023/01/24 04:49:17;;;;;;;1.87;1.30;;;6.40;47.50;;;;;;4934273;29;20298;-76
2023/01/24 04:51:43;;;;;;;1.80;1.30;;;6.40;47.50;;;;;;4935512;29;20175;-75
2023/01/24 04:54:12;;;;;;;1.90;1.30;;;6.60;46.60;;;;;;4933625;29;20255;-75
2023/01/24 04:56:38;;;;;;;1.70;1.20;;;6.50;46.60;;;;;;4934914;29;20200;-76
2023/01/24 04:59:04;;;;;;;1.70;1.20;;;6.40;47.70;;;;;;4918068;29;20180;-75
2023/01/24 05:01:30;;;;;;;1.70;1.23;;;6.60;47.90;;;;;;4933650;29;20530;-76
2023/01/24 05:03:58;;;;;;;1.80;1.30;;;6.70;46.70;;;;;;4933314;29;20743;-76
2023/01/24 05:06:25;;;;;;;1.70;1.20;;;6.70;46.70;;;;;;4934269;29;20211;-76
2023/01/24 05:08:52;;;;;;;1.80;1.20;;;6.70;46.70;;;;;;4934812;29;20210;-75
2023/01/24 05:11:18;;;;;;;1.70;1.20;;;6.60;46.60;;;;;;4933800;29;20180;-76
2023/01/24 05:13:43;;;;;;;1.80;1.40;;;6.50;46.60;;;;;;4933322;29;20238;-75
2023/01/24 05:16:09;;;;;;;1.80;1.30;;;6.20;48.20;;;;;;4931758;29;20188;-76
2023/01/24 05:18:34;;;;;;;1.90;1.40;;;6.40;47.70;;;;;;4933005;29;20275;-75
2023/01/24 05:21:08;;;;;;;2.10;1.57;;;6.50;47.50;;;;;;4932268;29;20190;-76
2023/01/24 05:23:34;;;;;;;1.70;1.20;;;6.50;46.80;;;;;;4934016;29;20195;-76
2023/01/24 05:26:01;;;;;;;1.87;1.37;;;6.20;48.80;;;;;;4933777;29;20595;-75
2023/01/24 05:28:27;;;;;;;1.90;1.50;;;6.30;48.90;;;;;;4914245;29;20226;-76
2023/01/24 05:30:57;;;;;;;1.80;1.30;;;6.20;48.40;;;;;;4934738;29;20211;-76
2023/01/24 05:33:22;;;;;;;3.38;2.67;;;6.40;48.50;;;;;;4932937;29;20659;-76
2023/01/24 05:35:48;;;;;;;1.90;1.30;;;6.60;47.30;;;;;;4934552;29;20196;-75
2023/01/24 05:38:13;;;;;;;2.07;1.60;;;6.80;46.80;;;;;;4930664;29;20172;-76
2023/01/24 05:40:39;;;;;;;1.90;1.40;;;6.90;46.30;;;;;;4933533;29;20192;-76
2023/01/24 05:43:06;;;;;;;2.93;2.27;;;6.50;47.10;;;;;;4933311;29;20692;-75
2023/01/24 05:45:31;;;;;;;1.90;1.50;;;6.20;49.00;;;;;;4934280;29;20184;-76
2023/01/24 05:47:57;;;;;;;1.67;1.20;;;6.20;49.10;;;;;;4932888;29;20694;-76
2023/01/24 05:50:22;;;;;;;1.70;1.20;;;6.30;48.50;;;;;;4930496;29;20211;-75
2023/01/24 05:52:48;;;;;;;2.70;2.20;;;6.30;48.60;;;;;;4934161;29;20196;-76
2023/01/24 05:55:13;;;;;;;1.80;1.30;;;6.20;49.10;;;;;;4934080;29;20184;-76
2023/01/24 05:57:39;;;;;;;1.80;1.30;;;6.20;49.40;;;;;;4934500;29;20562;-76
2023/01/24 06:00:05;;;;;;;2.10;1.70;;;6.40;48.80;;;;;;4930655;29;20641;-76
2023/01/24 06:02:31;;;;;;;1.80;1.30;;;6.60;47.40;;;;;;4933376;29;20207;-75
2023/01/24 06:04:56;;;;;;;1.70;1.20;;;6.50;48.30;;;;;;4936110;29;20709;-76
2023/01/24 06:07:22;;;;;;;1.80;1.40;;;6.70;46.70;;;;;;4934736;29;20180;-76
2023/01/24 06:09:47;;;;;;;2.20;1.80;;;6.40;48.20;;;;;;4933593;29;20675;-76
2023/01/24 06:12:13;;;;;;;3.50;1.83;;;6.50;48.20;;;;;;4932286;29;20207;-76
2023/01/24 06:14:38;;;;;;;4.13;1.93;;;6.70;47.00;;;;;;4933486;29;20184;-76
2023/01/24 06:17:04;;;;;;;2.00;1.53;;;6.80;46.80;;;;;;4934366;29;20678;-75
2023/01/24 06:19:30;;;;;;;2.33;1.87;;;6.90;46.90;;;;;;4933635;29;20266;-76
2023/01/24 06:22:15;;;;;;;2.20;1.70;;;6.30;48.00;;;;;;4932359;29;20608;-76
2023/01/24 06:24:41;;;;;;;2.75;1.55;;;6.30;49.20;;;;;;4933338;29;20498;-76
2023/01/24 06:27:08;;;;;;;1.90;1.40;;;6.10;49.50;;;;;;4933382;29;20200;-77
2023/01/24 06:29:34;;;;;;;1.70;1.20;;;6.30;49.10;;;;;;4934072;29;20195;-75
2023/01/24 06:32:13;;;;;;;2.13;1.60;;;6.30;49.20;;;;;;4932921;29;20568;-74
2023/01/24 06:34:45;;;;;;;2.53;1.50;;;6.50;48.70;;;;;;4935790;29;20431;-75
2023/01/24 06:37:32;;;;;;;1.92;1.40;;;6.50;47.90;;;;;;4940475;29;20231;-75
2023/01/24 06:39:58;;;;;;;1.73;1.23;;;6.50;47.80;;;;;;4940271;29;20184;-75
2023/01/24 06:42:24;;;;;;;1.80;1.40;;;6.50;47.80;;;;;;4937779;29;20210;-75
2023/01/24 06:44:49;;;;;;;2.55;1.75;;;6.60;48.00;;;;;;4939957;29;20416;-75
2023/01/24 06:47:16;;;;;;;1.63;1.17;;;6.50;47.90;;;;;;4947302;28;20319;-74
2023/01/24 06:49:42;;;;;;;10.48;3.28;;;6.20;48.90;;;;;;4940157;29;20207;-76
2023/01/24 06:52:08;;;;;;;3.20;1.77;;;6.60;48.00;;;;;;4940053;29;20235;-76
2023/01/24 06:54:35;;;;;;;1.90;1.40;;;6.60;47.00;;;;;;4940008;29;20523;-75
2023/01/24 06:57:01;;;;;;;3.47;2.53;;;6.30;48.60;;;;;;4938412;29;20211;-76
2023/01/24 06:59:26;;;;;;;1.90;1.38;;;6.20;49.70;;;;;;4939746;29;20659;-76
2023/01/24 07:01:52;;;;;;;1.70;1.20;;;6.60;48.20;;;;;;4940534;29;20187;-75
2023/01/24 07:04:18;;;;;;;1.90;1.40;;;6.30;49.00;;;;;;4939757;29;20215;-76
2023/01/24 07:06:44;;;;;;;4.80;3.83;;;6.30;49.00;;;;;;4938429;29;20183;-78
2023/01/24 07:09:09;;;;;;;1.75;1.20;;;6.30;49.20;;;;;;4939655;29;20475;-77
2023/01/24 07:11:35;;;;;;;1.70;1.20;;;6.50;48.10;;;;;;4944191;29;20180;-77
2023/01/24 07:14:02;;;;;;;1.90;1.40;;;6.60;47.60;;;;;;4939685;29;20343;-78
2023/01/24 07:16:28;;;;;;;1.90;1.40;;;6.40;48.20;;;;;;4938429;29;20227;-76
2023/01/24 07:18:54;;;;;;;1.70;1.30;;;6.50;48.10;;;;;;4936637;29;20275;-76
2023/01/24 07:21:20;;;;;;;3.08;2.45;;;6.20;49.40;;;;;;4938630;29;20210;-76
2023/01/24 07:23:48;;;;;;;2.10;1.63;;;6.10;49.90;;;;;;4938720;29;20699;-76
2023/01/24 07:26:14;;;;;;;2.72;1.90;;;6.40;49.30;;;;;;4939719;29;20795;-76
2023/01/24 07:28:40;;;;;;;1.90;1.40;;;6.40;48.40;;;;;;4935246;29;20212;-76
2023/01/24 07:31:06;;;;;;;1.80;1.30;;;6.60;47.40;;;;;;4939221;29;20180;-76
2023/01/24 07:33:33;;;;;;;1.80;1.30;;;6.40;48.10;;;;;;4939544;29;20219;-75
2023/01/24 07:35:58;;;;;;;5.63;3.53;;;6.50;48.20;;;;;;4941857;29;20176;-75
2023/01/24 07:38:24;;;;;;;1.80;1.37;;;6.80;46.80;;;;;;4940295;29;20206;-74
2023/01/24 07:40:50;;;;;;;1.70;1.20;;;6.70;46.30;;;;;;4938310;29;20191;-74
2023/01/24 07:43:16;;;;;;;1.90;1.57;;;6.40;48.20;;;;;;4939421;29;20200;-74
2023/01/24 07:45:45;;;;;;;1.97;1.53;;;6.60;47.80;;;;;;4936220;29;20180;-74
2023/01/24 07:48:11;;;;;;;2.28;1.75;;;6.40;47.60;;;;;;4936313;29;20591;-75
2023/01/24 07:50:36;;;;;;;5.60;2.13;;;6.60;47.40;;;;;;4933831;29;20254;-74
2023/01/24 07:53:03;;;;;;;3.27;2.47;;;6.10;48.90;;;;;;4936184;29;20196;-74
2023/01/24 07:55:28;;;;;;;1.80;1.30;;;6.30;48.80;;;;;;4936669;29;20639;-74
2023/01/24 07:57:59;;;;;;;2.73;2.03;;;6.40;48.20;;;;;;4935764;29;20208;-74
2023/01/24 08:00:25;;;;;;;1.95;1.40;;;6.70;46.70;;;;;;4936130;29;20227;-79
2023/01/24 08:02:51;;;;;;;1.80;1.30;;;6.60;46.60;;;;;;4935289;29;20216;-74
2023/01/24 08:05:16;;;;;;;1.90;1.40;;;6.60;47.20;;;;;;4936763;29;20183;-74
2023/01/24 08:07:42;;;;;;;1.70;1.27;;;6.70;46.70;;;;;;4936525;29;20589;-74
2023/01/24 08:10:09;;;;;;;2.60;1.80;;;6.40;47.70;;;;;;4933991;29;20207;-73
2023/01/24 08:12:34;;;;;;;3.28;2.33;;;6.50;47.50;;;;;;4934569;29;20226;-74
2023/01/24 08:15:00;;;;;;;2.17;1.60;;;6.50;47.40;;;;;;4936328;29;20196;-74
2023/01/24 08:17:26;;;;;;;1.80;1.30;;;6.60;46.60;;;;;;4935355;29;20207;-75
2023/01/24 08:19:52;;;;;;;1.70;1.20;;;6.60;47.60;;;;;;4935854;29;20738;-74
2023/01/24 08:22:17;;;;;;;1.90;1.50;;;6.70;46.70;;;;;;4933210;29;20211;-75
2023/01/24 08:24:43;;;;;;;2.57;1.90;;;7.00;46.00;;;;;;4935934;29;20678;-75
2023/01/24 08:27:08;;;;;;;2.17;1.70;;;7.20;45.70;;;;;;4935881;29;20176;-74
2023/01/24 08:29:34;;;;;;;2.63;2.10;;;7.10;44.80;;;;;;4935384;29;20247;-75
2023/01/24 08:31:59;;;;;;;2.00;1.50;;;6.80;45.60;;;;;;4931055;29;20183;-75
2023/01/24 08:34:25;;;;;;;2.13;1.73;;;6.90;45.50;;;;;;4933967;29;20178;-75
2023/01/24 08:36:51;;;;;;;2.13;1.57;;;6.80;45.80;;;;;;4934424;29;20190;-75
2023/01/24 08:39:16;;;;;;;1.87;1.30;;;7.00;46.30;;;;;;4934199;29;20598;-74
2023/01/24 08:41:45;;;;;;;1.80;1.30;;;7.20;45.30;;;;;;4933808;29;20532;-77
2023/01/24 08:44:11;;;;;;;2.85;2.15;;;7.10;44.90;;;;;;4932616;29;20199;-74
2023/01/24 08:46:37;;;;;;;2.20;1.70;;;7.00;46.10;;;;;;4933640;29;20248;-72
2023/01/24 08:49:03;;;;;;;1.80;1.60;;;7.30;44.10;;;;;;4935076;29;20212;-75
2023/01/24 08:51:28;;;;;;;1.73;1.25;;;7.50;44.00;;;;;;4935086;29;20707;-75
2023/01/24 08:53:54;;;;;;;2.53;2.27;;;7.50;43.30;;;;;;4934102;29;20287;-74
2023/01/24 08:56:20;;;;;;;2.17;1.60;;;7.50;43.60;;;;;;4934924;29;20192;-76
2023/01/24 08:58:46;;;;;;;1.90;1.43;;;7.80;42.60;;;;;;4934766;29;20571;-76
2023/01/24 09:01:11;;;;;;;4.90;2.60;;;7.60;42.70;;;;;;4934621;29;20274;-76
2023/01/24 09:03:37;;;;;;;2.13;1.73;;;7.40;43.50;;;;;;4934300;29;20695;-76
2023/01/24 09:06:03;;;;;;;1.70;1.20;;;7.50;43.40;;;;;;4934991;29;20184;-77
2023/01/24 09:08:29;;;;;;;2.38;1.90;;;7.40;43.80;;;;;;4939827;29;20408;-75
2023/01/24 09:10:58;;;;;;;1.85;1.27;;;7.50;43.40;;;;;;4932271;29;20187;-77
2023/01/24 09:13:24;;;;;;;2.20;1.55;;;7.30;43.70;;;;;;4932719;29;20327;-77
2023/01/24 09:15:50;;;;;;;1.80;1.30;;;7.00;44.90;;;;;;4934265;29;20718;-77
2023/01/24 09:18:16;;;;;;;3.30;2.20;;;7.10;44.90;;;;;;4934199;29;20184;-73
2023/01/24 09:20:42;;;;;;;1.95;1.52;;;7.20;44.70;;;;;;4934053;29;20576;-76
2023/01/24 09:23:16;;;;;;;2.07;1.60;;;7.30;44.50;;;;;;4934679;29;20215;-77
2023/01/24 09:25:49;;;;;;;1.80;1.35;;;7.10;44.60;;;;;;4934496;29;20179;-77
2023/01/24 09:28:15;;;;;;;2.10;1.50;;;7.10;44.80;;;;;;4932435;29;20188;-77
2023/01/24 09:30:40;;;;;;;3.33;2.03;;;7.40;44.60;;;;;;4933195;29;20270;-76
2023/01/24 09:33:07;;;;;;;2.40;1.90;;;7.40;44.20;;;;;;4932117;29;20208;-76
2023/01/24 09:35:32;;;;;;;1.80;1.30;;;7.40;44.10;;;;;;4932498;29;20207;-75
2023/01/24 09:37:58;;;;;;;1.80;1.30;;;7.40;43.90;;;;;;4931946;29;20652;-76
2023/01/24 09:40:25;;;;;;;2.73;1.80;;;7.40;43.50;;;;;;4932480;29;20696;-77
2023/01/24 09:43:06;;;;;;;1.88;1.40;;;7.40;43.90;;;;;;4933565;29;20702;-76
2023/01/24 09:45:47;;;;;;;2.03;1.50;;;7.40;43.60;;;;;;4934684;29;20594;-77
2023/01/24 09:48:15;;;;;;;3.38;2.03;;;7.20;44.40;;;;;;4928350;29;20251;-76
2023/01/24 09:50:46;;;;;;;2.13;1.65;;;7.10;44.40;;;;;;4933428;29;20208;-76
2023/01/24 09:53:20;;;;;;;1.77;1.30;;;6.80;45.20;;;;;;4932960;29;20306;-76
2023/01/24 09:55:46;;;;;;;1.80;1.30;;;6.60;46.60;;;;;;4934193;29;20203;-75
2023/01/24 09:58:28;;;;;;;1.90;1.40;;;6.60;46.60;;;;;;4932021;29;20247;-76
2023/01/24 10:00:54;;;;;;;1.83;1.38;;;6.70;46.70;;;;;;4930831;29;20202;-74
2023/01/24 10:03:24;;;;;;;4.93;2.25;;;6.70;47.20;;;;;;4933071;29;20199;-74
2023/01/24 10:05:53;;;;;;;1.90;1.30;;;7.10;46.10;;;;;;4930996;29;20543;-75
2023/01/24 10:08:37;;;;;;;2.38;1.88;;;7.40;44.20;;;;;;4934172;29;20191;-76
2023/01/24 10:11:11;;;;;;;1.73;1.27;;;7.50;44.00;;;;;;4934500;29;20180;-75
2023/01/24 10:14:01;;;;;;;1.70;1.17;;;7.50;44.00;;;;;;4934275;29;20207;-75
2023/01/24 10:16:33;;;;;;;2.05;1.55;;;7.30;44.30;;;;;;4932799;29;20211;-74
2023/01/24 10:19:27;;;;;;;1.70;1.30;;;7.40;44.10;;;;;;4933599;29;20183;-73
2023/01/24 10:22:17;;;;;;;1.80;1.30;;;7.30;44.40;;;;;;4928301;29;20703;-75
2023/01/24 10:25:13;;;;;;;2.00;1.35;;;7.30;44.20;;;;;;4915395;29;20185;-74
2023/01/24 10:27:43;;;;;;;2.10;1.50;;;7.00;45.30;;;;;;4893792;29;20287;-75
2023/01/24 10:30:27;;;;;;;3.67;2.00;;;7.30;44.50;;;;;;4892717;29;20212;-76
2023/01/24 10:32:59;;;;;;;1.80;1.50;;;7.70;43.60;;;;;;4893091;29;20263;-76
2023/01/24 10:35:53;;;;;;;1.90;1.40;;;7.70;44.00;;;;;;4892781;29;20205;-76
2023/01/24 10:38:19;;;;;;;2.45;1.83;;;7.80;43.20;;;;;;4893320;29;20668;-76
2023/01/24 10:40:52;;;;;;;1.70;1.20;;;7.80;43.00;;;;;;4894105;29;20233;-76
2023/01/24 10:43:19;;;;;;;1.70;1.10;;;8.00;43.30;;;;;;4896954;29;20224;-75
2023/01/24 10:45:57;;;;;;;2.28;1.70;;;8.20;41.70;;;;;;4889559;29;20275;-75
2023/01/24 10:48:49;;;;;;;2.50;1.73;;;7.90;41.80;;;;;;4892308;29;20649;-76
2023/01/24 10:51:20;;;;;;;2.90;1.73;;;7.60;43.70;;;;;;4884718;29;20202;-75
2023/01/24 10:53:46;;;;;;;2.80;2.13;;;8.00;42.60;;;;;;4893022;29;20234;-75
2023/01/24 10:56:15;;;;;;;1.80;1.30;;;8.20;41.30;;;;;;4893738;29;20226;-74
2023/01/24 10:58:53;;;;;;;2.00;1.40;;;8.40;41.20;;;;;;4893549;29;20668;-75
2023/01/24 11:01:22;;;;;;;2.28;1.50;;;8.30;41.50;;;;;;4889689;29;20706;-75
2023/01/24 11:03:50;;;;;;;3.53;2.03;;;8.00;42.10;;;;;;4898049;29;20216;-75
2023/01/24 11:06:39;;;;;;;1.85;1.23;;;8.00;42.90;;;;;;4926806;29;20683;-75
2023/01/24 11:09:10;;;;;;;3.25;2.40;;;7.70;42.70;;;;;;4922959;29;20220;-73
2023/01/24 11:11:42;;;;;;;2.33;1.60;;;7.90;42.40;;;;;;4931757;29;20187;-75
2023/01/24 11:14:16;;;;;;;1.90;1.45;;;7.70;43.00;;;;;;4932401;29;20675;-75
2023/01/24 11:16:47;;;;;;;2.90;1.67;;;7.70;42.60;;;;;;4926450;29;20168;-75
2023/01/24 11:19:29;;;;;;;2.63;2.13;;;7.70;42.60;;;;;;4929672;29;20184;-75
2023/01/24 11:21:58;;;;;;;2.53;1.92;;;7.30;43.40;;;;;;4928281;29;20188;-75
2023/01/24 11:24:24;;;;;;;1.90;1.45;;;7.20;45.10;;;;;;4931476;29;20262;-75
2023/01/24 11:27:13;;;;;;;2.00;1.63;;;7.20;45.30;;;;;;4934182;29;20589;-75
2023/01/24 11:29:38;;;;;;;1.70;1.15;;;7.50;44.00;;;;;;4934505;29;20214;-75
2023/01/24 11:32:24;;;;;;;1.80;1.20;;;7.60;43.40;;;;;;4935666;29;20556;-75
2023/01/24 11:34:50;;;;;;;1.70;1.20;;;7.90;42.60;;;;;;4898297;29;20259;-75
2023/01/24 11:37:39;;;;;;;1.70;1.30;;;7.70;44.20;;;;;;4936431;29;20179;-72
2023/01/24 11:40:28;;;;;;;2.40;1.77;;;7.70;43.50;;;;;;4933874;29;20195;-75
2023/01/24 11:43:38;;;;;;;1.98;1.50;;;8.20;42.10;;;;;;4925157;29;20228;-75
2023/01/24 11:46:15;;;;;;;2.13;1.35;;;8.10;42.50;;;;;;4881375;29;20689;-75
2023/01/24 11:48:43;;;;;;;2.00;1.50;;;8.10;43.20;;;;;;4921972;29;20221;-75
2023/01/24 11:51:27;;;;;;;2.42;1.85;;;8.00;42.30;;;;;;4934869;29;20183;-76
2023/01/24 11:54:22;;;;;;;3.00;2.10;;;8.20;41.70;;;;;;4933856;29;20200;-75
2023/01/24 11:57:17;;;;;;;2.70;1.70;;;8.30;41.40;;;;;;4877603;29;20248;-75
2023/01/24 12:00:20;;;;;;;3.42;2.45;;;8.50;41.20;;;;;;4927681;29;20268;-75
2023/01/24 12:03:04;;;;;;;1.83;1.27;;;8.40;41.40;;;;;;4944684;23;20236;-68
2023/01/24 12:05:51;;;;;;;2.13;1.50;;;8.30;41.80;;;;;;4932047;29;20715;-71
2023/01/24 12:08:35;;;;;;;2.30;1.38;;;8.20;42.00;;;;;;4935272;29;20219;-70
2023/01/24 12:11:11;;;;;;;1.90;1.40;;;8.10;42.10;;;;;;4935705;29;20271;-71
2023/01/24 12:13:50;;;;;;;3.55;2.63;;;8.30;42.40;;;;;;4909332;29;20191;-71
2023/01/24 12:16:33;;;;;;;2.70;1.60;;;8.30;40.70;;;;;;4917204;29;20180;-70
2023/01/24 12:19:13;;;;;;;3.25;1.90;;;7.80;42.40;;;;;;4932639;29;20199;-75
2023/01/24 12:21:38;;;;;;;2.35;1.80;;;7.60;43.90;;;;;;4917236;29;20275;-71
2023/01/24 12:24:27;;;;;;;1.90;1.37;;;8.00;43.20;;;;;;4916762;29;20217;-71
2023/01/24 12:26:57;;;;;;;1.90;1.33;;;8.50;40.90;;;;;;4916406;29;20212;-70
2023/01/24 12:29:38;;;;;;;1.90;1.27;;;8.70;40.90;;;;;;4917753;29;20321;-71
2023/01/24 12:32:11;;;;;;;1.83;1.30;;;7.70;42.60;;;;;;4923917;29;20639;-72
2023/01/24 12:34:51;;;;;;;1.70;1.20;;;7.70;43.10;;;;;;4907928;29;20612;-72
2023/01/24 12:37:19;;;;;;;2.22;1.50;;;7.80;43.20;;;;;;4921201;29;20241;-71
2023/01/24 12:40:11;;;;;;;1.63;1.20;;;8.10;42.10;;;;;;4915718;29;20316;-71
2023/01/24 12:43:11;;;;;;;1.90;1.40;;;8.10;42.20;;;;;;4880813;29;20216;-71
2023/01/24 12:45:46;;;;;;;2.03;1.65;;;8.20;42.00;;;;;;4915342;29;20207;-71
2023/01/24 12:48:32;;;;;;;1.95;1.33;;;8.50;41.30;;;;;;4916005;29;20192;-71
2023/01/24 12:51:04;;;;;;;1.70;1.10;;;8.50;40.70;;;;;;4917198;29;20771;-71
2023/01/24 12:53:48;;;;;;;2.15;1.83;;;8.00;41.70;;;;;;4922556;29;20207;-69
2023/01/24 12:56:16;;;;;;;2.00;1.40;;;7.90;43.20;;;;;;4914581;29;20197;-69
2023/01/24 12:58:45;;;;;;;2.30;1.80;;;8.50;42.30;;;;;;4915685;29;20267;-70
2023/01/24 13:01:36;;;;;;;2.90;1.77;;;8.40;41.00;;;;;;4915662;29;20228;-70
2023/01/24 13:04:34;;;;;;;2.55;1.73;;;8.40;40.80;;;;;;4920217;29;20228;-71
2023/01/24 13:07:12;;;;;;;1.80;1.20;;;8.40;41.10;;;;;;4915031;29;20216;-70
2023/01/24 13:10:11;;;;;;;3.05;2.20;;;7.50;42.50;;;;;;4896366;29;20754;-71
2023/01/24 13:12:39;;;;;;;1.73;1.20;;;7.40;44.40;;;;;;4897142;29;20233;-71
2023/01/24 13:15:13;;;;;;;1.80;1.20;;;7.60;44.10;;;;;;4927688;29;20188;-70
2023/01/24 13:17:48;;;;;;;2.22;1.63;;;7.90;42.90;;;;;;4912976;29;20194;-71
2023/01/24 13:20:48;;;;;;;2.00;1.55;;;8.30;41.70;;;;;;4915934;29;20184;-71
2023/01/24 13:23:50;;;;;;;1.90;1.30;;;8.10;41.90;;;;;;4916012;29;20189;-71
2023/01/24 13:26:24;;;;;;;1.80;1.20;;;8.10;42.20;;;;;;4926142;29;20549;-70
2023/01/24 13:29:09;;;;;;;2.92;2.20;;;8.10;41.50;;;;;;4915544;29;20204;-71
2023/01/24 13:31:59;;;;;;;1.70;1.20;;;8.10;42.10;;;;;;4914316;29;20569;-72
2023/01/24 13:34:37;;;;;;;1.70;1.10;;;8.40;41.90;;;;;;4914765;29;20188;-71
2023/01/24 13:37:04;;;;;;;2.35;1.40;;;8.50;41.20;;;;;;4914784;29;20189;-71
2023/01/24 13:39:36;;;;;;;1.90;1.42;;;8.40;40.50;;;;;;4922186;29;20633;-71
2023/01/24 13:42:18;;;;;;;1.70;1.10;;;8.50;40.80;;;;;;4915226;29;20224;-71
2023/01/24 13:44:44;;;;;;;1.70;1.40;;;8.40;40.60;;;;;;4914970;29;20214;-69
2023/01/24 13:47:13;;;;;;;1.80;1.40;;;8.40;41.50;;;;;;4914551;29;20216;-69
2023/01/24 13:49:44;;;;;;;1.80;1.15;;;8.20;41.90;;;;;;4912787;29;20552;-71